Hlavní strana
METAR-TAF:

METAR-TAF

Letiště :

Ben Gurionovo mezinárodní letiště

Tel Aviv / Ben Gurion, Izrael

zeměpisná šířka: 32-00N, zeměpisná délka: 034-54E, výška: 40 m

Aktuální stav počasí

Zpráva byla vytvořena před 23 minutami, v 21:50 UTC
Jihovýchodní vítr 4 kt
Teplota 10°C
Vlhkost vzduchu 82%
Tlak 1010 hPa
Viditelnost 10 km a více
Skoro jasno ve výšce 4500 ft

METAR: LLBG 252150Z 13004KT 9999 FEW045 10/07 Q1010 NOSIG

Čas: 00:13 (22:13 UTC)

Předpověď počasí

Zpráva byla vytvořena před 5 hodinami a 11 minutami, v 17:02 UTC
Předpověď platná od 25 v 18 UTC do 26 v 18 UTC
vítr z různých směrů 4 kt
Viditelnost 10 km a více
Polojasno ve výšce 3000 ft
Změna
od 26 v 07 UTC do 26 v 09 UTC
Západojihozápadní vítr 10 kt

TAF: LLBG 251702Z 2518/2618 VRB04KT 9999 SCT030 BECMG 2607/2609 25010KT TX17/2612Z TN11/2604Z

Stav a předpovědi počasí z více než 4 000 letišť (zprávy METAR a TAF).

Červené a žluté tečky na mapě představují dostupné meteorologické stanice.

Když kurzor umístíte na tečku, zobrazí se název stanice.

Pak kliknutím zobrazíte stav a předpověď počasí.

Chcete-li změnit mapu, kliknutím na zelené tlačítko se znaménkem +mapu přiblížíte, kliknutím na zelené tlačítko se znaménkem – mapu oddálíte a kliknutím na zelené šipky přejdete na sousední mapy.


METAR-TAF: